Time;durP1;ratioP1;P1;durP2;ratioP2;P2;SDS_P1;SDS_P2;PMS_P1;PMS_P2;Temp;Humidity;BMP_temperature;BMP_pressure;BME280_temperature;BME280_humidity;BME280_pressure;Samples;Min_cycle;Max_cycle;Signal;HPM_P1;HPM_P2
2021/05/08 00:00:20;;;;;;;1.70;1.60;;;3.50;99.90;;;;;;5083619;28;20209;-69
2021/05/08 00:02:47;;;;;;;1.90;1.67;;;3.50;99.90;;;;;;5083163;28;20263;-70
2021/05/08 00:05:14;;;;;;;2.03;1.40;;;3.60;99.90;;;;;;5082524;28;20251;-69
2021/05/08 00:07:41;;;;;;;2.93;1.80;;;3.70;99.90;;;;;;5086792;28;20225;-69
2021/05/08 00:10:09;;;;;;;1.50;1.40;;;3.70;99.90;;;;;;5080235;28;20236;-69
2021/05/08 00:12:36;;;;;;;2.00;1.37;;;3.70;99.90;;;;;;5083625;28;20668;-68
2021/05/08 00:15:03;;;;;;;2.33;1.50;;;3.80;99.90;;;;;;5082365;28;20312;-69
2021/05/08 00:17:29;;;;;;;2.00;1.80;;;3.90;99.90;;;;;;5084802;28;20664;-69
2021/05/08 00:19:56;;;;;;;2.23;1.60;;;4.00;99.90;;;;;;5086483;28;20205;-69
2021/05/08 00:22:23;;;;;;;2.73;1.70;;;4.00;99.90;;;;;;5089972;28;20593;-70
2021/05/08 00:24:49;;;;;;;3.10;1.90;;;4.10;99.90;;;;;;5088236;28;20210;-69
2021/05/08 00:27:15;;;;;;;2.00;1.70;;;4.20;99.90;;;;;;5087492;28;20221;-68
2021/05/08 00:29:42;;;;;;;1.97;1.77;;;4.30;99.90;;;;;;5083597;28;20737;-69
2021/05/08 00:32:08;;;;;;;2.27;1.80;;;4.40;99.90;;;;;;5080984;28;20244;-69
2021/05/08 00:34:34;;;;;;;1.70;1.60;;;4.40;99.90;;;;;;5088778;28;20327;-69
2021/05/08 00:37:02;;;;;;;2.30;1.97;;;4.50;99.90;;;;;;5081621;28;20782;-69
2021/05/08 00:39:28;;;;;;;2.33;2.07;;;4.50;99.90;;;;;;5078374;28;20296;-68
2021/05/08 00:41:55;;;;;;;2.40;1.97;;;4.50;99.90;;;;;;5090422;28;20209;-69
2021/05/08 00:44:21;;;;;;;2.47;2.27;;;4.50;99.90;;;;;;5087617;28;20207;-69
2021/05/08 00:46:48;;;;;;;2.63;2.27;;;4.60;99.90;;;;;;5086583;28;20335;-70
2021/05/08 00:49:16;;;;;;;2.30;2.10;;;4.60;99.90;;;;;;5089433;28;20207;-70
2021/05/08 00:51:42;;;;;;;2.27;2.03;;;4.60;99.90;;;;;;5080754;28;20741;-70
2021/05/08 00:54:09;;;;;;;2.80;2.17;;;4.70;99.90;;;;;;5084318;28;20287;-68
2021/05/08 00:56:36;;;;;;;2.70;2.20;;;4.70;99.90;;;;;;5086887;28;20216;-69
2021/05/08 00:59:03;;;;;;;2.40;2.20;;;4.70;99.90;;;;;;5084135;28;20304;-69
2021/05/08 01:01:29;;;;;;;4.03;2.60;;;4.80;99.90;;;;;;5089221;28;20558;-68
2021/05/08 01:03:55;;;;;;;2.00;1.90;;;4.80;99.90;;;;;;5088713;28;20197;-67
2021/05/08 01:06:22;;;;;;;3.20;2.57;;;4.80;99.90;;;;;;5087111;28;20307;-68
2021/05/08 01:08:49;;;;;;;2.83;2.53;;;4.90;99.90;;;;;;5085045;28;20293;-67
2021/05/08 01:11:16;;;;;;;3.40;2.57;;;4.90;99.90;;;;;;5091178;28;20200;-67
2021/05/08 01:13:42;;;;;;;3.53;2.43;;;4.90;99.90;;;;;;5089591;28;20710;-67
2021/05/08 01:16:09;;;;;;;2.90;2.37;;;5.00;99.90;;;;;;5093491;28;20216;-68
2021/05/08 01:18:36;;;;;;;3.23;2.53;;;5.00;99.90;;;;;;5084916;28;20584;-67
2021/05/08 01:21:03;;;;;;;4.23;3.07;;;5.00;99.90;;;;;;5089522;28;20207;-67
2021/05/08 01:23:30;;;;;;;4.30;3.23;;;5.00;99.90;;;;;;5089648;28;20681;-67
2021/05/08 01:25:57;;;;;;;4.17;3.60;;;5.10;99.90;;;;;;5086278;28;20265;-68
2021/05/08 01:28:26;;;;;;;4.20;3.80;;;5.10;99.90;;;;;;5090922;28;20319;-66
2021/05/08 01:30:52;;;;;;;4.53;3.47;;;5.10;99.90;;;;;;5085086;28;20200;-67
2021/05/08 01:33:18;;;;;;;4.63;3.73;;;5.10;99.90;;;;;;5082164;28;20239;-68
2021/05/08 01:35:45;;;;;;;5.40;4.90;;;5.10;99.90;;;;;;5073248;28;20202;-67
2021/05/08 01:38:11;;;;;;;5.33;4.63;;;5.10;99.90;;;;;;5087217;28;20280;-66
2021/05/08 01:40:40;;;;;;;5.03;4.53;;;5.20;99.90;;;;;;5083894;28;20606;-66
2021/05/08 01:43:07;;;;;;;6.37;5.40;;;5.10;99.90;;;;;;5086654;28;20233;-66
2021/05/08 01:45:33;;;;;;;7.30;5.73;;;5.20;99.90;;;;;;5076169;28;20209;-67
2021/05/08 01:48:02;;;;;;;6.87;6.07;;;5.20;99.90;;;;;;5079065;28;20248;-67
2021/05/08 01:50:29;;;;;;;7.77;5.27;;;5.30;99.90;;;;;;5081658;28;20229;-66
2021/05/08 01:52:56;;;;;;;8.07;6.07;;;5.30;99.90;;;;;;5083977;28;20265;-66
2021/05/08 01:55:25;;;;;;;7.50;5.87;;;5.40;99.90;;;;;;5080620;28;20202;-66
2021/05/08 01:57:53;;;;;;;6.27;5.67;;;5.40;99.90;;;;;;5079478;28;20576;-66
2021/05/08 02:00:22;;;;;;;9.73;6.07;;;5.40;99.90;;;;;;5090603;28;20299;-67
2021/05/08 02:02:50;;;;;;;7.53;6.63;;;5.40;99.90;;;;;;5080531;28;20201;-68
2021/05/08 02:05:17;;;;;;;8.40;6.17;;;5.50;99.90;;;;;;5082050;28;20204;-67
2021/05/08 02:07:43;;;;;;;7.13;6.30;;;5.50;99.90;;;;;;5085373;28;20248;-67
2021/05/08 02:10:12;;;;;;;9.13;6.93;;;5.50;99.90;;;;;;5077255;28;20301;-67
2021/05/08 02:12:38;;;;;;;7.07;6.37;;;5.60;99.90;;;;;;5080123;28;20249;-67
2021/05/08 02:15:08;;;;;;;7.10;6.40;;;5.60;99.90;;;;;;5087264;28;20224;-67
2021/05/08 02:17:34;;;;;;;9.70;6.67;;;5.60;99.90;;;;;;5079763;28;20200;-67
2021/05/08 02:20:01;;;;;;;8.13;6.93;;;5.60;99.90;;;;;;5088900;28;20239;-66
2021/05/08 02:22:27;;;;;;;8.47;6.63;;;5.60;99.90;;;;;;5077367;28;20566;-67
2021/05/08 02:24:54;;;;;;;7.70;6.77;;;5.60;99.90;;;;;;5081499;28;20654;-66
2021/05/08 02:27:20;;;;;;;12.33;7.27;;;5.60;99.90;;;;;;5076502;28;20297;-66
2021/05/08 02:29:46;;;;;;;7.17;6.47;;;5.60;99.90;;;;;;5068110;28;20254;-66
2021/05/08 02:32:13;;;;;;;9.40;7.00;;;5.70;99.90;;;;;;5077413;28;20550;-66
2021/05/08 02:34:40;;;;;;;8.30;6.93;;;5.70;99.90;;;;;;5081847;28;20244;-68
2021/05/08 02:37:06;;;;;;;8.17;7.03;;;5.70;99.90;;;;;;5083043;28;20288;-67
2021/05/08 02:39:32;;;;;;;9.07;6.97;;;5.70;99.90;;;;;;5081540;28;20218;-68
2021/05/08 02:41:59;;;;;;;7.00;6.30;;;5.20;99.90;;;;;;5075450;28;20205;-66
2021/05/08 02:44:25;;;;;;;7.70;6.23;;;5.80;99.90;;;;;;5083821;28;20216;-67
2021/05/08 02:46:51;;;;;;;8.87;6.40;;;5.80;99.90;;;;;;5076194;28;20682;-66
2021/05/08 02:49:19;;;;;;;7.87;6.47;;;5.80;99.90;;;;;;5087806;28;20671;-67
2021/05/08 02:51:45;;;;;;;10.13;6.37;;;5.80;99.90;;;;;;5071861;28;20201;-66
2021/05/08 02:54:11;;;;;;;8.80;6.40;;;5.80;99.90;;;;;;5083453;28;20207;-67
2021/05/08 02:56:37;;;;;;;8.33;6.30;;;5.80;99.90;;;;;;5076069;28;20209;-67
2021/05/08 02:59:04;;;;;;;7.47;5.70;;;5.80;99.90;;;;;;5076214;28;20295;-66
2021/05/08 03:01:32;;;;;;;7.77;6.23;;;5.90;99.90;;;;;;5087238;28;20345;-66
2021/05/08 03:03:59;;;;;;;6.33;5.67;;;5.90;99.90;;;;;;5075127;28;20233;-66
2021/05/08 03:06:26;;;;;;;7.90;6.47;;;5.90;99.90;;;;;;5092707;28;20275;-67
2021/05/08 03:08:53;;;;;;;7.20;6.07;;;5.90;99.90;;;;;;5082720;28;20221;-66
2021/05/08 03:11:19;;;;;;;7.90;6.60;;;5.90;99.90;;;;;;5083613;28;20284;-66
2021/05/08 03:13:46;;;;;;;10.17;7.13;;;5.90;99.90;;;;;;5069499;28;20673;-67
2021/05/08 03:16:15;;;;;;;10.27;6.67;;;5.90;99.90;;;;;;5082394;28;20537;-67
2021/05/08 03:18:41;;;;;;;8.43;7.07;;;6.00;99.90;;;;;;5091365;28;20204;-67
2021/05/08 03:21:07;;;;;;;8.00;6.73;;;6.00;99.90;;;;;;5085552;28;20291;-67
2021/05/08 03:23:34;;;;;;;10.90;6.97;;;6.00;99.90;;;;;;5088179;28;20205;-67
2021/05/08 03:26:01;;;;;;;8.40;6.70;;;6.00;99.90;;;;;;5078508;28;20296;-67
2021/05/08 03:28:27;;;;;;;7.67;6.87;;;6.10;99.90;;;;;;5083152;28;20343;-66
2021/05/08 03:30:54;;;;;;;7.43;5.03;;;6.00;99.90;;;;;;5079671;28;20211;-67
2021/05/08 03:33:20;;;;;;;6.17;5.53;;;6.00;99.90;;;;;;5082658;28;20359;-66
2021/05/08 03:35:47;;;;;;;6.53;5.07;;;6.10;99.90;;;;;;5082609;28;20283;-66
2021/05/08 03:38:13;;;;;;;5.83;5.00;;;6.00;99.90;;;;;;5091936;28;20226;-66
2021/05/08 03:40:40;;;;;;;5.17;4.67;;;6.10;99.90;;;;;;5087650;28;20233;-66
2021/05/08 03:43:06;;;;;;;7.03;5.27;;;6.10;99.90;;;;;;5089439;28;20621;-66
2021/05/08 03:45:33;;;;;;;6.97;6.03;;;6.00;99.90;;;;;;5081492;28;20212;-66
2021/05/08 03:48:00;;;;;;;7.40;6.10;;;6.10;99.90;;;;;;5081497;28;20228;-66
2021/05/08 03:50:26;;;;;;;6.50;5.80;;;6.10;99.90;;;;;;5079485;28;20201;-67
2021/05/08 03:52:53;;;;;;;7.53;5.90;;;6.10;99.90;;;;;;5083934;28;20212;-66
2021/05/08 03:55:20;;;;;;;6.63;5.93;;;6.10;99.90;;;;;;5081560;28;20205;-66
2021/05/08 03:57:47;;;;;;;5.87;5.30;;;6.20;99.90;;;;;;5077718;28;20556;-67
2021/05/08 04:00:15;;;;;;;5.67;5.07;;;6.20;99.90;;;;;;5087660;28;20564;-66
2021/05/08 04:02:41;;;;;;;8.27;5.50;;;6.20;99.90;;;;;;5090201;28;20204;-68
2021/05/08 04:05:09;;;;;;;5.90;5.30;;;6.20;99.90;;;;;;5082919;28;20319;-67
2021/05/08 04:07:35;;;;;;;6.10;5.43;;;6.20;99.90;;;;;;5088735;28;20231;-67
2021/05/08 04:10:01;;;;;;;6.13;5.43;;;6.20;99.90;;;;;;5083418;28;20201;-66
2021/05/08 04:12:28;;;;;;;5.70;5.00;;;6.20;99.90;;;;;;5084293;28;20710;-66
2021/05/08 04:14:55;;;;;;;6.40;5.80;;;6.20;99.90;;;;;;5086220;28;20313;-67
2021/05/08 04:17:21;;;;;;;5.43;4.73;;;6.10;99.90;;;;;;5093098;28;20255;-66
2021/05/08 04:19:47;;;;;;;6.27;5.33;;;6.10;99.90;;;;;;5089837;28;20210;-67
2021/05/08 04:22:14;;;;;;;6.80;6.10;;;6.10;99.90;;;;;;5083299;28;20201;-67
2021/05/08 04:24:40;;;;;;;7.43;5.60;;;6.10;99.90;;;;;;5077130;28;20216;-67
2021/05/08 04:27:07;;;;;;;5.67;5.17;;;6.10;99.90;;;;;;5084769;28;20579;-67
2021/05/08 04:29:33;;;;;;;5.70;5.20;;;6.10;99.90;;;;;;5089702;28;20212;-67
2021/05/08 04:32:00;;;;;;;5.53;5.03;;;6.20;99.90;;;;;;5085264;28;20333;-66
2021/05/08 04:34:27;;;;;;;5.97;5.37;;;6.10;99.90;;;;;;5079730;28;20268;-67
2021/05/08 04:36:53;;;;;;;5.90;5.27;;;6.30;99.90;;;;;;5085735;28;20208;-67
2021/05/08 04:39:19;;;;;;;7.00;5.90;;;6.30;99.90;;;;;;5087843;28;20288;-67
2021/05/08 04:41:46;;;;;;;6.43;5.27;;;6.30;99.90;;;;;;5078635;28;20212;-67
2021/05/08 04:44:12;;;;;;;5.83;5.23;;;6.40;99.90;;;;;;5079277;28;20284;-67
2021/05/08 04:46:38;;;;;;;5.50;4.83;;;6.30;99.90;;;;;;5087260;28;20715;-66
2021/05/08 04:49:05;;;;;;;5.47;4.93;;;6.30;99.90;;;;;;5088249;28;20228;-66
2021/05/08 04:51:32;;;;;;;6.20;5.33;;;6.30;99.90;;;;;;5079937;28;20291;-67
2021/05/08 04:53:58;;;;;;;6.00;5.43;;;6.30;99.90;;;;;;5077913;28;20211;-68
2021/05/08 04:56:25;;;;;;;5.53;4.87;;;6.30;99.90;;;;;;5077166;28;20709;-67
2021/05/08 04:58:51;;;;;;;6.27;5.17;;;6.30;99.90;;;;;;5085875;28;20561;-67
2021/05/08 05:01:18;;;;;;;5.33;4.83;;;6.30;99.90;;;;;;5082803;28;20296;-67
2021/05/08 05:03:44;;;;;;;5.67;4.93;;;6.30;99.90;;;;;;5087053;28;20379;-66
2021/05/08 05:06:12;;;;;;;6.57;5.77;;;6.30;99.90;;;;;;5089425;28;20578;-67
2021/05/08 05:08:38;;;;;;;6.97;5.80;;;6.20;99.90;;;;;;5084910;28;20316;-67
2021/05/08 05:11:04;;;;;;;6.27;5.60;;;6.20;99.90;;;;;;5090214;28;20720;-68
2021/05/08 05:13:31;;;;;;;6.53;5.50;;;6.20;99.90;;;;;;5082280;28;21052;-68
2021/05/08 05:15:57;;;;;;;7.07;5.83;;;6.20;99.90;;;;;;5090052;28;20287;-67
2021/05/08 05:18:24;;;;;;;6.53;5.90;;;6.20;99.90;;;;;;5090530;28;20288;-68
2021/05/08 05:20:50;;;;;;;6.57;5.87;;;6.40;99.90;;;;;;5084011;28;20245;-68
2021/05/08 05:23:17;;;;;;;8.57;5.90;;;6.40;99.90;;;;;;5081675;28;20283;-68
2021/05/08 05:25:43;;;;;;;9.00;6.23;;;6.40;99.90;;;;;;5087112;28;20615;-66
2021/05/08 05:28:21;;;;;;;7.30;5.80;;;6.40;99.90;;;;;;5082948;28;20761;-67
2021/05/08 05:30:48;;;;;;;7.07;6.07;;;6.40;99.90;;;;;;5084999;28;20672;-66
2021/05/08 05:33:14;;;;;;;7.63;6.27;;;6.50;99.90;;;;;;5082519;28;20233;-66
2021/05/08 05:35:41;;;;;;;6.93;6.23;;;6.60;99.90;;;;;;5088979;28;20244;-67
2021/05/08 05:38:07;;;;;;;7.17;6.27;;;6.60;99.90;;;;;;5087380;28;20618;-67
2021/05/08 05:40:35;;;;;;;6.27;5.53;;;6.70;99.90;;;;;;5090986;28;20645;-68
2021/05/08 05:43:01;;;;;;;7.47;6.53;;;6.70;99.90;;;;;;5083493;28;20216;-68
2021/05/08 05:45:28;;;;;;;7.10;6.23;;;6.80;99.90;;;;;;5083160;28;20296;-67
2021/05/08 05:47:55;;;;;;;7.13;6.03;;;6.70;99.90;;;;;;5077790;28;20220;-68
2021/05/08 05:50:22;;;;;;;6.70;6.00;;;6.80;99.90;;;;;;5089665;28;20719;-68
2021/05/08 05:52:48;;;;;;;6.93;6.20;;;6.80;99.90;;;;;;5085543;28;20574;-67
2021/05/08 05:55:15;;;;;;;7.70;6.00;;;6.80;99.90;;;;;;5081533;28;20702;-67
2021/05/08 05:57:42;;;;;;;6.40;5.80;;;6.80;99.90;;;;;;5087303;28;20619;-68
2021/05/08 06:00:10;;;;;;;7.13;5.47;;;6.80;99.90;;;;;;5075306;28;20316;-68
2021/05/08 06:02:36;;;;;;;6.27;5.67;;;6.80;99.90;;;;;;5082710;28;20292;-67
2021/05/08 06:05:03;;;;;;;7.93;6.60;;;6.80;99.90;;;;;;5081819;28;20205;-67
2021/05/08 06:07:30;;;;;;;7.07;5.73;;;6.90;99.90;;;;;;5086129;28;20224;-66
2021/05/08 06:09:56;;;;;;;9.47;5.97;;;6.90;99.90;;;;;;5086127;28;20201;-67
2021/05/08 06:12:22;;;;;;;6.07;5.47;;;7.00;99.90;;;;;;5081924;28;20658;-69
2021/05/08 06:14:50;;;;;;;6.13;5.53;;;7.00;99.90;;;;;;5071936;28;20221;-68
2021/05/08 06:17:16;;;;;;;8.33;5.93;;;7.10;99.90;;;;;;5076444;28;20197;-69
2021/05/08 06:19:43;;;;;;;5.77;4.70;;;7.20;99.90;;;;;;5076133;28;20255;-69
2021/05/08 06:22:09;;;;;;;5.90;5.10;;;7.40;99.90;;;;;;5087073;28;20288;-69
2021/05/08 06:24:36;;;;;;;5.10;4.57;;;7.50;99.90;;;;;;5077777;28;20569;-69
2021/05/08 06:27:02;;;;;;;5.00;4.50;;;7.60;99.90;;;;;;5080768;28;20579;-68
2021/05/08 06:29:29;;;;;;;5.23;4.73;;;7.70;99.90;;;;;;5088199;28;20242;-70
2021/05/08 06:31:56;;;;;;;5.03;4.53;;;7.70;99.90;;;;;;5079806;28;20292;-69
2021/05/08 06:34:23;;;;;;;7.07;4.40;;;7.80;99.90;;;;;;5086127;28;20242;-69
2021/05/08 06:36:49;;;;;;;4.97;4.40;;;7.80;99.90;;;;;;5084110;28;20309;-69
2021/05/08 06:39:15;;;;;;;4.80;4.40;;;7.80;99.90;;;;;;5085772;28;20209;-68
2021/05/08 06:41:42;;;;;;;7.63;4.30;;;7.80;99.90;;;;;;5083125;28;20627;-71
2021/05/08 06:44:09;;;;;;;4.83;4.10;;;7.90;99.90;;;;;;5079144;28;20300;-67
2021/05/08 06:46:35;;;;;;;5.00;4.50;;;7.90;99.90;;;;;;5089486;28;20609;-68
2021/05/08 06:49:03;;;;;;;5.70;4.80;;;8.10;99.90;;;;;;5079121;28;20679;-69
2021/05/08 06:51:29;;;;;;;6.60;5.80;;;8.20;99.90;;;;;;5077885;28;20208;-69
2021/05/08 06:53:56;;;;;;;5.17;4.50;;;8.40;99.90;;;;;;5075861;28;20237;-70
2021/05/08 06:56:23;;;;;;;4.90;4.27;;;8.50;99.90;;;;;;5083899;28;20260;-72
2021/05/08 06:58:50;;;;;;;4.50;4.10;;;8.70;99.90;;;;;;5086976;28;20272;-69
2021/05/08 07:01:17;;;;;;;4.37;3.97;;;9.00;99.90;;;;;;5070029;28;20696;-69
2021/05/08 07:03:44;;;;;;;4.80;4.20;;;9.20;99.90;;;;;;5073127;28;20205;-69
2021/05/08 07:06:11;;;;;;;4.80;4.40;;;9.30;99.90;;;;;;5072732;28;20205;-71
2021/05/08 07:08:37;;;;;;;5.57;4.10;;;9.40;99.90;;;;;;5071065;28;20213;-70
2021/05/08 07:11:04;;;;;;;4.47;4.07;;;9.40;99.90;;;;;;5070103;28;20223;-68
2021/05/08 07:13:31;;;;;;;4.30;3.90;;;9.30;99.90;;;;;;5066040;28;20229;-70
2021/05/08 07:15:57;;;;;;;5.37;4.90;;;9.30;99.90;;;;;;5066537;28;20292;-68
2021/05/08 07:18:24;;;;;;;4.43;4.03;;;9.30;99.90;;;;;;5073165;28;20233;-69
2021/05/08 07:20:51;;;;;;;5.27;4.30;;;9.40;99.90;;;;;;5072581;28;20287;-71
2021/05/08 07:23:19;;;;;;;4.87;4.33;;;9.50;99.90;;;;;;5068574;28;20205;-69
2021/05/08 07:25:46;;;;;;;5.77;4.90;;;9.70;99.90;;;;;;5073762;28;20629;-69
2021/05/08 07:28:13;;;;;;;5.27;4.20;;;10.00;99.90;;;;;;5072786;28;20764;-70
2021/05/08 07:30:41;;;;;;;4.83;4.33;;;10.30;99.90;;;;;;5072600;28;20574;-70
2021/05/08 07:33:08;;;;;;;5.90;3.90;;;10.40;99.90;;;;;;5072273;28;20233;-72
2021/05/08 07:35:34;;;;;;;3.73;3.33;;;10.50;99.90;;;;;;5074038;28;20304;-70
2021/05/08 07:38:01;;;;;;;5.37;4.20;;;10.60;99.90;;;;;;5074104;28;20292;-69
2021/05/08 07:40:30;;;;;;;3.67;3.20;;;10.50;99.90;;;;;;5077386;28;20284;-69
2021/05/08 07:42:56;;;;;;;3.73;3.20;;;10.30;99.90;;;;;;5075225;28;20437;-68
2021/05/08 07:45:23;;;;;;;5.17;3.40;;;10.20;99.90;;;;;;5073868;28;20201;-69
2021/05/08 07:47:49;;;;;;;3.93;3.40;;;10.20;99.90;;;;;;5075877;28;20221;-68
2021/05/08 07:50:16;;;;;;;5.60;3.30;;;10.10;99.90;;;;;;5076976;28;20201;-67
2021/05/08 07:52:42;;;;;;;6.43;3.60;;;10.20;99.90;;;;;;5074166;28;20208;-70
2021/05/08 07:55:09;;;;;;;3.97;3.00;;;10.40;99.90;;;;;;5076144;28;20718;-69
2021/05/08 07:57:38;;;;;;;5.23;3.23;;;10.60;99.90;;;;;;5075638;28;20215;-69
2021/05/08 08:00:07;;;;;;;4.80;3.03;;;10.90;99.90;;;;;;5078155;28;20232;-70
2021/05/08 08:02:33;;;;;;;3.17;2.87;;;11.00;99.90;;;;;;5079840;28;20209;-68
2021/05/08 08:05:00;;;;;;;3.23;2.80;;;11.10;99.90;;;;;;5074737;28;20202;-72
2021/05/08 08:07:27;;;;;;;4.23;3.23;;;11.10;99.90;;;;;;5077503;28;20228;-73
2021/05/08 08:09:54;;;;;;;2.63;2.37;;;11.10;99.90;;;;;;5078268;28;20240;-74
2021/05/08 08:12:21;;;;;;;2.97;2.67;;;11.10;99.90;;;;;;5079129;28;20232;-73
2021/05/08 08:14:49;;;;;;;5.13;3.20;;;11.10;99.90;;;;;;5079360;28;20221;-74
2021/05/08 08:17:17;;;;;;;3.67;2.80;;;11.20;99.90;;;;;;5078293;28;20571;-71
2021/05/08 08:19:47;;;;;;;4.30;2.90;;;11.30;99.90;;;;;;5079835;28;20215;-69
2021/05/08 08:22:14;;;;;;;4.03;2.47;;;11.40;99.90;;;;;;5087615;28;20643;-70
2021/05/08 08:24:41;;;;;;;3.70;2.37;;;11.30;99.90;;;;;;5071558;28;20217;-70
2021/05/08 08:27:08;;;;;;;4.03;2.43;;;11.20;99.90;;;;;;5070456;28;20210;-70
2021/05/08 08:29:36;;;;;;;3.70;2.67;;;11.00;99.90;;;;;;5069387;28;20292;-70
2021/05/08 08:32:04;;;;;;;3.13;2.53;;;10.80;99.90;;;;;;5062360;28;20254;-69
2021/05/08 08:34:30;;;;;;;4.30;2.53;;;10.60;99.90;;;;;;5076272;28;20245;-68
2021/05/08 08:36:57;;;;;;;4.63;2.57;;;10.50;99.90;;;;;;5076366;28;20300;-68
2021/05/08 08:39:23;;;;;;;3.07;2.40;;;10.40;99.90;;;;;;5075394;28;20201;-70
2021/05/08 08:41:52;;;;;;;5.07;2.50;;;10.40;99.90;;;;;;5075128;28;20568;-69
2021/05/08 08:44:18;;;;;;;4.40;2.30;;;10.50;99.90;;;;;;5073367;28;20202;-69
2021/05/08 08:46:46;;;;;;;7.27;3.50;;;10.60;99.90;;;;;;5074506;28;20354;-69
2021/05/08 08:49:15;;;;;;;3.10;2.43;;;10.70;99.90;;;;;;5072602;28;20221;-69
2021/05/08 08:51:42;;;;;;;4.13;2.63;;;10.60;99.90;;;;;;5073399;28;20391;-70
2021/05/08 08:54:09;;;;;;;3.67;2.67;;;10.70;99.90;;;;;;5081104;28;20288;-72
2021/05/08 08:56:39;;;;;;;2.50;2.30;;;10.80;99.90;;;;;;5081188;28;20214;-70
2021/05/08 08:59:14;;;;;;;3.30;2.83;;;11.20;99.90;;;;;;5082382;28;20602;-68
2021/05/08 09:01:42;;;;;;;3.23;2.67;;;11.50;99.90;;;;;;5074722;28;20208;-68
2021/05/08 09:04:09;;;;;;;4.17;2.47;;;11.80;99.90;;;;;;5074301;28;20209;-68
2021/05/08 09:06:38;;;;;;;3.30;2.67;;;12.10;99.90;;;;;;5083234;28;20220;-70
2021/05/08 09:09:05;;;;;;;3.53;2.30;;;12.40;99.90;;;;;;5084801;28;20247;-69
2021/05/08 09:11:31;;;;;;;3.53;2.10;;;12.50;99.40;;;;;;5079730;28;20369;-69
2021/05/08 09:14:26;;;;;;;2.47;2.03;;;12.70;98.90;;;;;;5087587;28;20239;-69
2021/05/08 09:17:04;;;;;;;3.57;1.80;;;12.80;97.40;;;;;;5088300;28;20649;-68
2021/05/08 09:19:31;;;;;;;2.97;1.97;;;12.90;95.40;;;;;;5082600;28;20216;-70
2021/05/08 09:21:59;;;;;;;2.83;2.20;;;13.00;94.20;;;;;;5076956;28;20292;-70
2021/05/08 09:24:25;;;;;;;2.73;1.97;;;13.20;93.30;;;;;;5075076;28;20205;-70
2021/05/08 09:26:53;;;;;;;3.80;2.50;;;13.40;92.50;;;;;;5084857;28;20375;-69
2021/05/08 09:29:23;;;;;;;2.63;2.17;;;13.40;91.70;;;;;;5079790;28;20217;-68
2021/05/08 09:31:54;;;;;;;4.40;2.20;;;13.30;90.70;;;;;;5084306;28;20216;-69
2021/05/08 09:34:20;;;;;;;2.67;2.10;;;13.30;89.60;;;;;;5091766;28;20735;-68
2021/05/08 09:36:51;;;;;;;3.30;2.07;;;13.10;88.50;;;;;;5076655;28;20637;-68
2021/05/08 09:39:28;;;;;;;3.50;2.13;;;12.90;88.80;;;;;;5077000;28;20345;-69
2021/05/08 09:41:55;;;;;;;4.07;3.00;;;12.70;90.00;;;;;;5088183;28;20244;-69
2021/05/08 09:44:22;;;;;;;4.37;2.33;;;12.60;90.60;;;;;;5090830;28;20204;-69
2021/05/08 09:46:48;;;;;;;2.47;1.93;;;12.60;90.50;;;;;;5089349;28;20228;-69
2021/05/08 09:49:16;;;;;;;2.60;1.80;;;12.60;91.00;;;;;;5083565;28;20308;-70
2021/05/08 09:51:44;;;;;;;4.80;2.37;;;12.50;90.10;;;;;;5086837;28;20207;-70
2021/05/08 09:54:16;;;;;;;3.23;2.00;;;12.70;90.40;;;;;;5080040;28;20202;-69
2021/05/08 09:56:44;;;;;;;4.57;2.63;;;12.90;90.00;;;;;;5085172;28;20274;-69
2021/05/08 09:59:33;;;;;;;2.13;1.77;;;13.00;88.00;;;;;;5089142;28;20274;-68
2021/05/08 10:02:15;;;;;;;3.63;2.00;;;13.20;86.20;;;;;;5075682;28;20662;-69
2021/05/08 10:04:44;;;;;;;3.83;1.77;;;13.20;84.40;;;;;;5087278;28;20217;-68
2021/05/08 10:07:11;;;;;;;2.70;1.70;;;13.00;81.90;;;;;;5086930;28;20250;-70
2021/05/08 10:09:39;;;;;;;4.47;2.07;;;12.70;81.20;;;;;;5085083;28;20307;-69
2021/05/08 10:12:08;;;;;;;2.37;1.80;;;12.30;84.70;;;;;;5086586;28;20197;-70
2021/05/08 10:14:36;;;;;;;3.73;2.13;;;12.00;89.40;;;;;;5086431;28;20566;-69
2021/05/08 10:17:03;;;;;;;2.33;1.63;;;11.70;91.10;;;;;;5086892;28;20311;-70
2021/05/08 10:19:31;;;;;;;4.00;2.20;;;11.40;91.80;;;;;;5077499;28;20220;-71
2021/05/08 10:21:58;;;;;;;2.43;2.10;;;11.30;92.80;;;;;;5081294;28;20278;-70
2021/05/08 10:24:26;;;;;;;2.57;2.37;;;11.40;95.50;;;;;;5081573;28;20355;-70
2021/05/08 10:26:57;;;;;;;3.70;2.50;;;11.70;96.80;;;;;;5084008;28;20300;-70
2021/05/08 10:29:26;;;;;;;3.60;2.57;;;12.20;96.70;;;;;;5083897;28;20244;-69
2021/05/08 10:31:53;;;;;;;2.23;2.03;;;12.70;94.60;;;;;;5081868;28;20564;-70
2021/05/08 10:34:31;;;;;;;3.23;2.40;;;12.80;93.00;;;;;;5083458;28;20236;-71
2021/05/08 10:37:06;;;;;;;4.70;1.80;;;12.80;92.40;;;;;;5080930;28;20649;-72
2021/05/08 10:39:54;;;;;;;3.97;1.57;;;12.60;91.80;;;;;;5084643;28;20196;-72
2021/05/08 10:42:37;;;;;;;2.13;1.27;;;12.40;90.90;;;;;;5079201;28;20672;-71
2021/05/08 10:45:07;;;;;;;2.23;1.20;;;12.40;92.00;;;;;;5084417;28;20268;-72
2021/05/08 10:48:08;;;;;;;2.93;1.60;;;12.70;92.10;;;;;;5078002;28;20208;-71
2021/05/08 10:50:48;;;;;;;3.57;1.53;;;13.20;90.90;;;;;;5078927;28;20231;-72
2021/05/08 10:53:17;;;;;;;2.63;1.83;;;13.70;88.70;;;;;;5072776;28;20598;-71
2021/05/08 10:55:50;;;;;;;2.70;1.90;;;14.00;83.30;;;;;;5080480;28;20296;-71
2021/05/08 10:58:34;;;;;;;2.40;1.30;;;14.10;79.70;;;;;;5086206;28;20211;-72
2021/05/08 11:01:04;;;;;;;2.53;1.13;;;14.20;76.60;;;;;;5087012;28;20283;-72
2021/05/08 11:03:33;;;;;;;1.73;1.23;;;14.00;75.50;;;;;;5087059;28;20642;-72
2021/05/08 11:06:04;;;;;;;1.43;1.20;;;13.80;76.60;;;;;;5082148;28;20212;-70
2021/05/08 11:08:46;;;;;;;1.67;1.23;;;13.50;78.50;;;;;;5074313;28;20217;-70
2021/05/08 11:11:16;;;;;;;1.73;1.30;;;13.30;81.50;;;;;;5087133;28;20223;-69
2021/05/08 11:14:01;;;;;;;1.47;1.10;;;13.10;82.00;;;;;;5080296;28;20233;-70
2021/05/08 11:16:30;;;;;;;3.43;1.20;;;13.00;84.70;;;;;;5083604;28;20204;-69
2021/05/08 11:18:58;;;;;;;1.60;1.33;;;13.10;86.10;;;;;;5074634;28;20653;-69
2021/05/08 11:21:41;;;;;;;2.07;1.37;;;13.40;86.70;;;;;;5084090;28;20204;-72
2021/05/08 11:24:10;;;;;;;1.73;1.30;;;13.80;88.10;;;;;;5084282;28;20276;-71
2021/05/08 11:26:38;;;;;;;3.90;1.50;;;14.10;85.20;;;;;;5076523;28;20205;-71
2021/05/08 11:29:06;;;;;;;3.23;1.40;;;14.40;84.00;;;;;;5090228;28;20223;-71
2021/05/08 11:31:36;;;;;;;5.20;1.60;;;14.50;81.20;;;;;;5080053;28;20695;-72
2021/05/08 11:34:11;;;;;;;3.57;1.80;;;14.30;79.30;;;;;;5089074;28;20236;-70
2021/05/08 11:36:48;;;;;;;1.97;1.40;;;14.10;79.50;;;;;;5077740;28;20292;-71
2021/05/08 11:39:16;;;;;;;4.10;2.13;;;13.90;81.40;;;;;;5076059;28;20212;-73
2021/05/08 11:41:43;;;;;;;1.60;1.50;;;13.70;83.50;;;;;;5084197;28;20304;-75
2021/05/08 11:44:18;;;;;;;2.30;1.57;;;13.70;85.40;;;;;;5088589;28;20312;-69
2021/05/08 11:46:53;;;;;;;6.37;1.83;;;13.80;83.80;;;;;;5083066;28;20609;-71
2021/05/08 11:49:27;;;;;;;3.07;1.93;;;13.90;80.30;;;;;;5079671;28;20314;-72
2021/05/08 11:51:54;;;;;;;3.63;1.67;;;14.10;81.30;;;;;;5090651;28;20244;-68
2021/05/08 11:54:20;;;;;;;3.43;1.70;;;14.20;79.20;;;;;;5082012;28;20289;-73
2021/05/08 11:56:47;;;;;;;4.53;1.60;;;14.30;76.70;;;;;;5076410;28;20197;-73
2021/05/08 11:59:13;;;;;;;3.67;1.77;;;14.30;74.10;;;;;;5078088;28;20658;-69
2021/05/08 12:01:40;;;;;;;1.90;1.50;;;14.30;72.50;;;;;;5087677;28;20590;-69
2021/05/08 12:04:07;;;;;;;4.47;1.50;;;14.20;72.50;;;;;;5078303;28;20205;-68
2021/05/08 12:06:35;;;;;;;3.37;1.47;;;14.30;72.60;;;;;;5082649;28;20303;-72
2021/05/08 12:09:10;;;;;;;2.77;1.93;;;14.50;72.00;;;;;;5076786;28;20229;-70
2021/05/08 12:11:37;;;;;;;2.27;1.73;;;14.70;71.00;;;;;;5082642;28;20667;-73
2021/05/08 12:14:19;;;;;;;3.70;1.90;;;14.80;70.60;;;;;;5076633;28;20252;-71
2021/05/08 12:16:46;;;;;;;2.90;2.17;;;14.90;70.20;;;;;;5090351;28;20216;-68
2021/05/08 12:19:14;;;;;;;3.80;1.80;;;14.90;70.00;;;;;;5084278;28;20204;-69
2021/05/08 12:21:40;;;;;;;2.63;1.60;;;14.90;69.50;;;;;;5078620;28;20292;-68
2021/05/08 12:24:12;;;;;;;2.00;1.70;;;14.90;67.90;;;;;;5075355;28;20213;-69
2021/05/08 12:26:48;;;;;;;2.43;1.47;;;14.90;65.90;;;;;;5079655;28;20222;-69
2021/05/08 12:29:14;;;;;;;3.07;1.93;;;14.80;64.60;;;;;;5081334;28;20296;-73
2021/05/08 12:31:45;;;;;;;2.50;1.50;;;14.90;64.20;;;;;;5080805;28;20629;-70
2021/05/08 12:34:13;;;;;;;3.77;1.43;;;14.90;64.10;;;;;;5091888;28;20338;-71
2021/05/08 12:36:41;;;;;;;4.10;1.90;;;14.80;63.20;;;;;;5087296;28;20201;-71
2021/05/08 12:39:21;;;;;;;4.20;1.83;;;14.60;62.30;;;;;;5086741;28;20215;-76
2021/05/08 12:41:53;;;;;;;4.40;1.97;;;14.50;62.50;;;;;;5082674;28;20653;-72
2021/05/08 12:44:29;;;;;;;4.67;1.90;;;14.20;62.80;;;;;;5086007;28;20204;-70
2021/05/08 12:46:59;;;;;;;2.87;1.70;;;14.00;65.00;;;;;;5087352;28;20283;-72
2021/05/08 12:49:28;;;;;;;4.97;2.47;;;13.90;67.10;;;;;;5083069;28;20231;-72
2021/05/08 12:51:55;;;;;;;4.40;2.37;;;13.80;67.90;;;;;;5083324;28;20291;-71
2021/05/08 12:54:27;;;;;;;5.17;2.20;;;13.90;68.60;;;;;;5081834;28;20243;-70
2021/05/08 12:56:55;;;;;;;3.40;1.80;;;13.90;68.40;;;;;;5082985;28;20213;-71